sensor_id;sensor_type;location;lat;lon;timestamp;P1;durP1;ratioP1;P2;durP2;ratioP2
14740;SDS011;7462;53.530;9.414;2022-11-15T00:00:00;37.50;;;25.97;;
14740;SDS011;7462;53.530;9.414;2022-11-15T00:02:49;34.37;;;25.47;;
14740;SDS011;7462;53.530;9.414;2022-11-15T00:05:35;33.07;;;25.03;;
14740;SDS011;7462;53.530;9.414;2022-11-15T00:08:22;34.83;;;23.53;;
14740;SDS011;7462;53.530;9.414;2022-11-15T00:11:09;33.23;;;24.57;;
14740;SDS011;7462;53.530;9.414;2022-11-15T00:13:57;30.10;;;22.17;;
14740;SDS011;7462;53.530;9.414;2022-11-15T00:16:46;31.53;;;23.30;;
14740;SDS011;7462;53.530;9.414;2022-11-15T00:19:34;32.63;;;22.60;;
14740;SDS011;7462;53.530;9.414;2022-11-15T00:22:21;30.83;;;22.83;;
14740;SDS011;7462;53.530;9.414;2022-11-15T00:25:07;29.83;;;21.27;;
14740;SDS011;7462;53.530;9.414;2022-11-15T00:27:55;32.80;;;23.33;;
14740;SDS011;7462;53.530;9.414;2022-11-15T00:30:42;30.67;;;22.47;;
14740;SDS011;7462;53.530;9.414;2022-11-15T00:33:29;31.90;;;23.40;;
14740;SDS011;7462;53.530;9.414;2022-11-15T00:36:18;32.80;;;22.00;;
14740;SDS011;7462;53.530;9.414;2022-11-15T00:39:04;32.27;;;22.40;;
14740;SDS011;7462;53.530;9.414;2022-11-15T00:41:51;32.13;;;22.73;;
14740;SDS011;7462;53.530;9.414;2022-11-15T00:44:38;30.50;;;21.60;;
14740;SDS011;7462;53.530;9.414;2022-11-15T00:47:24;26.83;;;20.07;;
14740;SDS011;7462;53.530;9.414;2022-11-15T00:50:10;29.53;;;20.73;;
14740;SDS011;7462;53.530;9.414;2022-11-15T00:53:01;27.97;;;19.50;;
14740;SDS011;7462;53.530;9.414;2022-11-15T00:55:48;28.70;;;22.57;;
14740;SDS011;7462;53.530;9.414;2022-11-15T00:58:34;29.77;;;22.30;;
14740;SDS011;7462;53.530;9.414;2022-11-15T01:01:20;26.83;;;19.43;;
14740;SDS011;7462;53.530;9.414;2022-11-15T01:04:07;26.13;;;21.03;;
14740;SDS011;7462;53.530;9.414;2022-11-15T01:06:54;26.73;;;20.20;;
14740;SDS011;7462;53.530;9.414;2022-11-15T01:09:41;29.50;;;20.17;;
14740;SDS011;7462;53.530;9.414;2022-11-15T01:12:28;27.27;;;19.87;;
14740;SDS011;7462;53.530;9.414;2022-11-15T01:15:15;26.73;;;19.97;;
14740;SDS011;7462;53.530;9.414;2022-11-15T01:18:01;26.07;;;19.43;;
14740;SDS011;7462;53.530;9.414;2022-11-15T01:20:48;26.13;;;19.63;;
14740;SDS011;7462;53.530;9.414;2022-11-15T01:23:34;28.07;;;20.00;;
14740;SDS011;7462;53.530;9.414;2022-11-15T01:26:22;26.17;;;19.10;;
14740;SDS011;7462;53.530;9.414;2022-11-15T01:29:10;24.47;;;18.63;;
14740;SDS011;7462;53.530;9.414;2022-11-15T01:31:57;24.87;;;19.67;;
14740;SDS011;7462;53.530;9.414;2022-11-15T01:34:43;26.37;;;19.47;;
14740;SDS011;7462;53.530;9.414;2022-11-15T01:37:30;27.93;;;19.40;;
14740;SDS011;7462;53.530;9.414;2022-11-15T01:40:16;24.53;;;19.00;;
14740;SDS011;7462;53.530;9.414;2022-11-15T01:43:22;24.83;;;18.20;;
14740;SDS011;7462;53.530;9.414;2022-11-15T01:46:15;23.73;;;17.57;;
14740;SDS011;7462;53.530;9.414;2022-11-15T01:49:11;22.67;;;17.73;;
14740;SDS011;7462;53.530;9.414;2022-11-15T01:52:03;23.87;;;17.90;;
14740;SDS011;7462;53.530;9.414;2022-11-15T01:54:53;24.63;;;19.03;;
14740;SDS011;7462;53.530;9.414;2022-11-15T01:57:45;24.63;;;18.60;;
14740;SDS011;7462;53.530;9.414;2022-11-15T02:00:35;23.17;;;17.93;;
14740;SDS011;7462;53.530;9.414;2022-11-15T02:03:23;26.90;;;18.63;;
14740;SDS011;7462;53.530;9.414;2022-11-15T02:06:21;22.70;;;18.07;;
14740;SDS011;7462;53.530;9.414;2022-11-15T02:09:08;23.13;;;17.53;;
14740;SDS011;7462;53.530;9.414;2022-11-15T02:11:55;23.57;;;18.27;;
14740;SDS011;7462;53.530;9.414;2022-11-15T02:14:44;21.47;;;17.10;;
14740;SDS011;7462;53.530;9.414;2022-11-15T02:17:39;23.30;;;18.07;;
14740;SDS011;7462;53.530;9.414;2022-11-15T02:20:39;22.60;;;17.53;;
14740;SDS011;7462;53.530;9.414;2022-11-15T02:30:37;27.00;;;18.37;;
14740;SDS011;7462;53.530;9.414;2022-11-15T02:33:30;24.37;;;18.13;;
14740;SDS011;7462;53.530;9.414;2022-11-15T02:36:25;23.07;;;17.77;;
14740;SDS011;7462;53.530;9.414;2022-11-15T02:39:21;23.47;;;16.73;;
14740;SDS011;7462;53.530;9.414;2022-11-15T02:42:14;22.90;;;17.10;;
14740;SDS011;7462;53.530;9.414;2022-11-15T02:45:24;19.87;;;16.23;;
14740;SDS011;7462;53.530;9.414;2022-11-15T02:48:16;23.50;;;16.90;;
14740;SDS011;7462;53.530;9.414;2022-11-15T02:51:03;20.63;;;16.30;;
14740;SDS011;7462;53.530;9.414;2022-11-15T02:53:50;22.67;;;16.67;;
14740;SDS011;7462;53.530;9.414;2022-11-15T02:56:36;19.90;;;16.20;;
14740;SDS011;7462;53.530;9.414;2022-11-15T03:03:01;20.43;;;16.00;;
14740;SDS011;7462;53.530;9.414;2022-11-15T03:06:00;20.70;;;15.73;;
14740;SDS011;7462;53.530;9.414;2022-11-15T03:08:57;21.90;;;16.90;;
14740;SDS011;7462;53.530;9.414;2022-11-15T03:11:50;20.90;;;15.67;;
14740;SDS011;7462;53.530;9.414;2022-11-15T03:14:43;20.57;;;15.63;;
14740;SDS011;7462;53.530;9.414;2022-11-15T03:17:38;21.90;;;17.20;;
14740;SDS011;7462;53.530;9.414;2022-11-15T03:20:29;21.50;;;16.07;;
14740;SDS011;7462;53.530;9.414;2022-11-15T03:23:18;21.67;;;16.50;;
14740;SDS011;7462;53.530;9.414;2022-11-15T03:26:06;22.23;;;16.47;;
14740;SDS011;7462;53.530;9.414;2022-11-15T03:28:56;23.07;;;16.73;;
14740;SDS011;7462;53.530;9.414;2022-11-15T03:31:47;23.97;;;16.27;;
14740;SDS011;7462;53.530;9.414;2022-11-15T03:34:38;19.60;;;15.83;;
14740;SDS011;7462;53.530;9.414;2022-11-15T03:37:29;19.47;;;15.00;;
14740;SDS011;7462;53.530;9.414;2022-11-15T03:40:21;24.30;;;16.53;;
14740;SDS011;7462;53.530;9.414;2022-11-15T03:43:14;20.67;;;15.80;;
14740;SDS011;7462;53.530;9.414;2022-11-15T03:46:10;24.70;;;17.50;;
14740;SDS011;7462;53.530;9.414;2022-11-15T03:49:03;22.23;;;16.80;;
14740;SDS011;7462;53.530;9.414;2022-11-15T03:51:52;24.27;;;16.83;;
14740;SDS011;7462;53.530;9.414;2022-11-15T03:54:50;23.43;;;17.83;;
14740;SDS011;7462;53.530;9.414;2022-11-15T03:57:39;21.33;;;16.90;;
14740;SDS011;7462;53.530;9.414;2022-11-15T04:00:26;21.57;;;16.13;;
14740;SDS011;7462;53.530;9.414;2022-11-15T04:03:13;24.67;;;17.43;;
14740;SDS011;7462;53.530;9.414;2022-11-15T04:06:00;23.90;;;17.03;;
14740;SDS011;7462;53.530;9.414;2022-11-15T04:08:47;24.07;;;17.33;;
14740;SDS011;7462;53.530;9.414;2022-11-15T04:11:33;25.73;;;17.53;;
14740;SDS011;7462;53.530;9.414;2022-11-15T04:14:21;23.00;;;17.40;;
14740;SDS011;7462;53.530;9.414;2022-11-15T04:17:07;22.13;;;17.00;;
14740;SDS011;7462;53.530;9.414;2022-11-15T04:19:54;21.93;;;16.60;;
14740;SDS011;7462;53.530;9.414;2022-11-15T04:22:59;26.10;;;18.97;;
14740;SDS011;7462;53.530;9.414;2022-11-15T04:26:04;22.23;;;15.67;;
14740;SDS011;7462;53.530;9.414;2022-11-15T04:28:52;27.83;;;19.23;;
14740;SDS011;7462;53.530;9.414;2022-11-15T04:31:58;24.10;;;17.17;;
14740;SDS011;7462;53.530;9.414;2022-11-15T04:34:44;25.33;;;18.40;;
14740;SDS011;7462;53.530;9.414;2022-11-15T04:37:30;27.60;;;20.17;;
14740;SDS011;7462;53.530;9.414;2022-11-15T04:40:17;30.80;;;21.93;;
14740;SDS011;7462;53.530;9.414;2022-11-15T04:43:03;25.63;;;19.93;;
14740;SDS011;7462;53.530;9.414;2022-11-15T04:45:50;23.07;;;17.13;;
14740;SDS011;7462;53.530;9.414;2022-11-15T04:48:38;27.00;;;18.90;;
14740;SDS011;7462;53.530;9.414;2022-11-15T04:51:25;27.00;;;19.60;;
14740;SDS011;7462;53.530;9.414;2022-11-15T04:54:11;23.20;;;17.43;;
14740;SDS011;7462;53.530;9.414;2022-11-15T04:56:58;25.80;;;18.40;;
14740;SDS011;7462;53.530;9.414;2022-11-15T04:59:44;23.57;;;17.43;;
14740;SDS011;7462;53.530;9.414;2022-11-15T05:02:31;25.17;;;18.63;;
14740;SDS011;7462;53.530;9.414;2022-11-15T05:05:33;25.60;;;17.87;;
14740;SDS011;7462;53.530;9.414;2022-11-15T05:08:19;23.53;;;17.47;;
14740;SDS011;7462;53.530;9.414;2022-11-15T05:11:06;22.07;;;17.40;;
14740;SDS011;7462;53.530;9.414;2022-11-15T05:13:53;23.27;;;17.27;;
14740;SDS011;7462;53.530;9.414;2022-11-15T05:16:40;22.33;;;17.70;;
14740;SDS011;7462;53.530;9.414;2022-11-15T05:19:27;21.17;;;17.03;;
14740;SDS011;7462;53.530;9.414;2022-11-15T05:22:15;23.43;;;16.70;;
14740;SDS011;7462;53.530;9.414;2022-11-15T05:25:01;22.20;;;16.37;;
14740;SDS011;7462;53.530;9.414;2022-11-15T05:27:48;23.87;;;16.57;;
14740;SDS011;7462;53.530;9.414;2022-11-15T05:30:34;23.53;;;17.77;;
14740;SDS011;7462;53.530;9.414;2022-11-15T05:33:21;21.23;;;15.80;;
14740;SDS011;7462;53.530;9.414;2022-11-15T05:36:09;21.67;;;15.90;;
14740;SDS011;7462;53.530;9.414;2022-11-15T05:39:03;25.73;;;18.97;;
14740;SDS011;7462;53.530;9.414;2022-11-15T05:41:54;23.20;;;16.63;;
14740;SDS011;7462;53.530;9.414;2022-11-15T05:44:46;22.17;;;17.03;;
14740;SDS011;7462;53.530;9.414;2022-11-15T05:47:34;23.33;;;17.63;;
14740;SDS011;7462;53.530;9.414;2022-11-15T05:50:22;20.90;;;15.93;;
14740;SDS011;7462;53.530;9.414;2022-11-15T05:53:09;22.33;;;16.80;;
14740;SDS011;7462;53.530;9.414;2022-11-15T05:55:59;22.60;;;16.23;;
14740;SDS011;7462;53.530;9.414;2022-11-15T05:58:45;23.07;;;17.83;;
14740;SDS011;7462;53.530;9.414;2022-11-15T06:01:32;20.47;;;16.33;;
14740;SDS011;7462;53.530;9.414;2022-11-15T06:04:18;21.83;;;16.67;;
14740;SDS011;7462;53.530;9.414;2022-11-15T06:07:05;19.43;;;15.97;;
14740;SDS011;7462;53.530;9.414;2022-11-15T06:09:52;19.67;;;14.67;;
14740;SDS011;7462;53.530;9.414;2022-11-15T06:12:39;23.73;;;15.87;;
14740;SDS011;7462;53.530;9.414;2022-11-15T06:15:26;19.33;;;14.50;;
14740;SDS011;7462;53.530;9.414;2022-11-15T06:18:13;21.97;;;16.10;;
14740;SDS011;7462;53.530;9.414;2022-11-15T06:20:59;20.13;;;14.70;;
14740;SDS011;7462;53.530;9.414;2022-11-15T06:23:46;20.77;;;15.03;;
14740;SDS011;7462;53.530;9.414;2022-11-15T06:26:33;19.37;;;15.60;;
14740;SDS011;7462;53.530;9.414;2022-11-15T06:29:22;19.80;;;15.67;;
14740;SDS011;7462;53.530;9.414;2022-11-15T06:32:09;21.23;;;15.83;;
14740;SDS011;7462;53.530;9.414;2022-11-15T06:34:56;21.77;;;15.73;;
14740;SDS011;7462;53.530;9.414;2022-11-15T06:37:42;17.83;;;15.53;;
14740;SDS011;7462;53.530;9.414;2022-11-15T06:40:29;20.70;;;15.90;;
14740;SDS011;7462;53.530;9.414;2022-11-15T06:43:15;18.37;;;15.97;;
14740;SDS011;7462;53.530;9.414;2022-11-15T06:46:03;24.10;;;18.43;;
14740;SDS011;7462;53.530;9.414;2022-11-15T06:48:51;32.30;;;23.47;;
14740;SDS011;7462;53.530;9.414;2022-11-15T06:51:37;22.43;;;16.70;;
14740;SDS011;7462;53.530;9.414;2022-11-15T06:54:24;19.40;;;15.57;;
14740;SDS011;7462;53.530;9.414;2022-11-15T06:57:10;18.57;;;15.23;;
14740;SDS011;7462;53.530;9.414;2022-11-15T06:59:57;19.73;;;15.43;;
14740;SDS011;7462;53.530;9.414;2022-11-15T07:02:45;18.70;;;14.87;;
14740;SDS011;7462;53.530;9.414;2022-11-15T07:05:32;22.83;;;16.07;;
14740;SDS011;7462;53.530;9.414;2022-11-15T07:08:19;17.37;;;14.17;;
14740;SDS011;7462;53.530;9.414;2022-11-15T07:11:06;18.60;;;15.20;;
14740;SDS011;7462;53.530;9.414;2022-11-15T07:13:54;19.60;;;15.17;;
14740;SDS011;7462;53.530;9.414;2022-11-15T07:16:40;17.03;;;14.93;;
14740;SDS011;7462;53.530;9.414;2022-11-15T07:19:27;18.27;;;15.27;;
14740;SDS011;7462;53.530;9.414;2022-11-15T07:22:14;18.27;;;15.27;;
14740;SDS011;7462;53.530;9.414;2022-11-15T07:25:00;18.13;;;14.87;;
14740;SDS011;7462;53.530;9.414;2022-11-15T07:27:53;21.10;;;15.40;;
14740;SDS011;7462;53.530;9.414;2022-11-15T07:30:41;19.80;;;14.97;;
14740;SDS011;7462;53.530;9.414;2022-11-15T07:33:29;22.10;;;16.97;;
14740;SDS011;7462;53.530;9.414;2022-11-15T07:36:18;20.43;;;16.33;;
14740;SDS011;7462;53.530;9.414;2022-11-15T07:39:04;17.50;;;15.53;;
14740;SDS011;7462;53.530;9.414;2022-11-15T07:41:50;18.53;;;15.53;;
14740;SDS011;7462;53.530;9.414;2022-11-15T07:44:58;17.43;;;14.10;;
14740;SDS011;7462;53.530;9.414;2022-11-15T07:47:45;18.47;;;16.17;;
14740;SDS011;7462;53.530;9.414;2022-11-15T07:50:31;21.73;;;17.03;;
14740;SDS011;7462;53.530;9.414;2022-11-15T07:53:19;21.37;;;18.10;;
14740;SDS011;7462;53.530;9.414;2022-11-15T07:56:05;20.33;;;16.27;;
14740;SDS011;7462;53.530;9.414;2022-11-15T07:58:53;20.00;;;15.77;;
14740;SDS011;7462;53.530;9.414;2022-11-15T08:01:39;17.37;;;14.60;;
14740;SDS011;7462;53.530;9.414;2022-11-15T08:04:26;18.73;;;14.90;;
14740;SDS011;7462;53.530;9.414;2022-11-15T08:07:12;15.97;;;14.27;;
14740;SDS011;7462;53.530;9.414;2022-11-15T08:10:00;19.63;;;15.97;;
14740;SDS011;7462;53.530;9.414;2022-11-15T08:12:54;16.63;;;14.20;;
14740;SDS011;7462;53.530;9.414;2022-11-15T08:15:43;16.07;;;14.00;;
14740;SDS011;7462;53.530;9.414;2022-11-15T08:18:30;16.97;;;15.17;;
14740;SDS011;7462;53.530;9.414;2022-11-15T08:21:17;17.10;;;14.20;;
14740;SDS011;7462;53.530;9.414;2022-11-15T08:24:05;20.07;;;15.07;;
14740;SDS011;7462;53.530;9.414;2022-11-15T08:26:56;18.20;;;14.70;;
14740;SDS011;7462;53.530;9.414;2022-11-15T08:29:43;17.33;;;13.93;;
14740;SDS011;7462;53.530;9.414;2022-11-15T08:32:31;20.07;;;14.37;;
14740;SDS011;7462;53.530;9.414;2022-11-15T08:35:18;17.97;;;13.80;;
14740;SDS011;7462;53.530;9.414;2022-11-15T08:38:12;14.77;;;13.20;;
14740;SDS011;7462;53.530;9.414;2022-11-15T08:41:00;16.23;;;12.90;;
14740;SDS011;7462;53.530;9.414;2022-11-15T08:43:50;14.73;;;12.70;;
14740;SDS011;7462;53.530;9.414;2022-11-15T08:46:36;16.63;;;13.23;;
14740;SDS011;7462;53.530;9.414;2022-11-15T08:49:23;16.43;;;13.07;;
14740;SDS011;7462;53.530;9.414;2022-11-15T08:52:09;16.57;;;12.90;;
14740;SDS011;7462;53.530;9.414;2022-11-15T08:54:56;15.43;;;12.30;;
14740;SDS011;7462;53.530;9.414;2022-11-15T08:57:43;13.97;;;12.47;;
14740;SDS011;7462;53.530;9.414;2022-11-15T09:00:31;14.23;;;12.70;;
14740;SDS011;7462;53.530;9.414;2022-11-15T09:03:18;13.83;;;11.43;;
14740;SDS011;7462;53.530;9.414;2022-11-15T09:06:05;14.33;;;12.50;;
14740;SDS011;7462;53.530;9.414;2022-11-15T09:08:52;15.17;;;12.20;;
14740;SDS011;7462;53.530;9.414;2022-11-15T09:11:39;14.60;;;11.50;;
14740;SDS011;7462;53.530;9.414;2022-11-15T09:14:26;16.00;;;12.30;;
14740;SDS011;7462;53.530;9.414;2022-11-15T09:17:14;13.77;;;11.83;;
14740;SDS011;7462;53.530;9.414;2022-11-15T09:20:08;14.93;;;12.50;;
14740;SDS011;7462;53.530;9.414;2022-11-15T09:22:58;12.83;;;11.53;;
14740;SDS011;7462;53.530;9.414;2022-11-15T09:25:45;14.73;;;11.17;;
14740;SDS011;7462;53.530;9.414;2022-11-15T09:28:32;14.47;;;11.70;;
14740;SDS011;7462;53.530;9.414;2022-11-15T09:31:20;13.40;;;11.23;;
14740;SDS011;7462;53.530;9.414;2022-11-15T09:34:08;17.33;;;13.60;;
14740;SDS011;7462;53.530;9.414;2022-11-15T09:36:56;15.07;;;13.50;;
14740;SDS011;7462;53.530;9.414;2022-11-15T09:39:42;13.93;;;12.30;;
14740;SDS011;7462;53.530;9.414;2022-11-15T09:42:39;11.97;;;10.53;;
14740;SDS011;7462;53.530;9.414;2022-11-15T09:45:39;14.33;;;11.57;;
14740;SDS011;7462;53.530;9.414;2022-11-15T09:48:48;16.40;;;11.57;;
14740;SDS011;7462;53.530;9.414;2022-11-15T09:51:39;12.83;;;10.53;;
14740;SDS011;7462;53.530;9.414;2022-11-15T09:54:16;10.77;;;9.57;;
14740;SDS011;7462;53.530;9.414;2022-11-15T09:57:14;10.73;;;9.07;;
14740;SDS011;7462;53.530;9.414;2022-11-15T09:59:47;12.50;;;9.00;;
14740;SDS011;7462;53.530;9.414;2022-11-15T10:02:42;10.67;;;9.13;;
14740;SDS011;7462;53.530;9.414;2022-11-15T10:05:23;11.00;;;9.80;;
14740;SDS011;7462;53.530;9.414;2022-11-15T10:07:54;13.00;;;10.00;;
14740;SDS011;7462;53.530;9.414;2022-11-15T10:10:30;13.17;;;10.80;;
14740;SDS011;7462;53.530;9.414;2022-11-15T10:13:03;11.67;;;10.47;;
14740;SDS011;7462;53.530;9.414;2022-11-15T10:15:31;12.40;;;9.87;;
14740;SDS011;7462;53.530;9.414;2022-11-15T10:18:12;11.60;;;10.40;;
14740;SDS011;7462;53.530;9.414;2022-11-15T10:20:46;11.03;;;9.60;;
14740;SDS011;7462;53.530;9.414;2022-11-15T10:23:17;11.47;;;9.60;;
14740;SDS011;7462;53.530;9.414;2022-11-15T10:25:48;10.63;;;8.90;;
14740;SDS011;7462;53.530;9.414;2022-11-15T10:28:21;12.63;;;9.27;;
14740;SDS011;7462;53.530;9.414;2022-11-15T10:30:53;9.97;;;8.97;;
14740;SDS011;7462;53.530;9.414;2022-11-15T10:33:32;9.63;;;8.63;;
14740;SDS011;7462;53.530;9.414;2022-11-15T10:36:18;9.40;;;8.10;;
14740;SDS011;7462;53.530;9.414;2022-11-15T10:38:58;9.43;;;8.53;;
14740;SDS011;7462;53.530;9.414;2022-11-15T10:41:35;10.97;;;9.00;;
14740;SDS011;7462;53.530;9.414;2022-11-15T10:44:10;10.37;;;8.57;;
14740;SDS011;7462;53.530;9.414;2022-11-15T10:46:47;8.97;;;7.97;;
14740;SDS011;7462;53.530;9.414;2022-11-15T10:49:31;8.37;;;7.17;;
14740;SDS011;7462;53.530;9.414;2022-11-15T10:52:00;8.90;;;7.53;;
14740;SDS011;7462;53.530;9.414;2022-11-15T10:54:33;8.27;;;7.10;;
14740;SDS011;7462;53.530;9.414;2022-11-15T10:57:06;8.87;;;7.80;;
14740;SDS011;7462;53.530;9.414;2022-11-15T10:59:37;10.23;;;8.03;;
14740;SDS011;7462;53.530;9.414;2022-11-15T11:04:54;10.70;;;7.70;;
14740;SDS011;7462;53.530;9.414;2022-11-15T11:07:23;8.47;;;7.67;;
14740;SDS011;7462;53.530;9.414;2022-11-15T11:09:59;9.83;;;8.20;;
14740;SDS011;7462;53.530;9.414;2022-11-15T11:12:50;8.40;;;7.50;;
14740;SDS011;7462;53.530;9.414;2022-11-15T11:15:18;8.73;;;7.80;;
14740;SDS011;7462;53.530;9.414;2022-11-15T11:17:53;9.30;;;7.97;;
14740;SDS011;7462;53.530;9.414;2022-11-15T11:20:28;8.57;;;7.67;;
14740;SDS011;7462;53.530;9.414;2022-11-15T11:23:03;8.53;;;7.63;;
14740;SDS011;7462;53.530;9.414;2022-11-15T11:25:47;9.20;;;8.13;;
14740;SDS011;7462;53.530;9.414;2022-11-15T11:28:28;8.67;;;7.63;;
14740;SDS011;7462;53.530;9.414;2022-11-15T11:31:07;8.67;;;6.63;;
14740;SDS011;7462;53.530;9.414;2022-11-15T11:33:50;8.63;;;7.43;;
14740;SDS011;7462;53.530;9.414;2022-11-15T11:36:30;10.33;;;7.23;;
14740;SDS011;7462;53.530;9.414;2022-11-15T11:39:14;8.60;;;7.10;;
14740;SDS011;7462;53.530;9.414;2022-11-15T11:41:55;8.50;;;7.53;;
14740;SDS011;7462;53.530;9.414;2022-11-15T11:44:34;10.03;;;7.47;;
14740;SDS011;7462;53.530;9.414;2022-11-15T11:47:14;11.13;;;7.97;;
14740;SDS011;7462;53.530;9.414;2022-11-15T11:49:49;9.17;;;7.87;;
14740;SDS011;7462;53.530;9.414;2022-11-15T11:52:21;9.77;;;7.50;;
14740;SDS011;7462;53.530;9.414;2022-11-15T11:54:55;8.63;;;7.83;;
14740;SDS011;7462;53.530;9.414;2022-11-15T11:57:32;8.90;;;7.33;;
14740;SDS011;7462;53.530;9.414;2022-11-15T12:00:12;8.20;;;7.37;;
14740;SDS011;7462;53.530;9.414;2022-11-15T12:02:47;8.73;;;6.67;;
14740;SDS011;7462;53.530;9.414;2022-11-15T12:05:35;7.87;;;7.07;;
14740;SDS011;7462;53.530;9.414;2022-11-15T12:08:14;9.83;;;7.17;;
14740;SDS011;7462;53.530;9.414;2022-11-15T12:11:01;9.80;;;7.10;;
14740;SDS011;7462;53.530;9.414;2022-11-15T12:13:36;8.20;;;7.40;;
14740;SDS011;7462;53.530;9.414;2022-11-15T12:16:10;9.23;;;7.20;;
14740;SDS011;7462;53.530;9.414;2022-11-15T12:18:44;10.90;;;7.67;;
14740;SDS011;7462;53.530;9.414;2022-11-15T12:21:18;7.80;;;6.97;;
14740;SDS011;7462;53.530;9.414;2022-11-15T12:23:55;8.30;;;7.50;;
14740;SDS011;7462;53.530;9.414;2022-11-15T12:26:31;8.43;;;7.17;;
14740;SDS011;7462;53.530;9.414;2022-11-15T12:29:09;8.27;;;7.27;;
14740;SDS011;7462;53.530;9.414;2022-11-15T12:31:45;8.93;;;7.20;;
14740;SDS011;7462;53.530;9.414;2022-11-15T12:34:43;8.40;;;6.53;;
14740;SDS011;7462;53.530;9.414;2022-11-15T12:40:29;6.80;;;6.20;;
14740;SDS011;7462;53.530;9.414;2022-11-15T12:43:04;7.03;;;6.23;;
14740;SDS011;7462;53.530;9.414;2022-11-15T12:45:50;7.90;;;7.13;;
14740;SDS011;7462;53.530;9.414;2022-11-15T12:51:22;6.07;;;5.47;;
14740;SDS011;7462;53.530;9.414;2022-11-15T12:57:32;8.23;;;6.27;;
14740;SDS011;7462;53.530;9.414;2022-11-15T13:03:22;6.67;;;5.97;;
14740;SDS011;7462;53.530;9.414;2022-11-15T13:05:59;8.53;;;6.10;;
14740;SDS011;7462;53.530;9.414;2022-11-15T13:08:37;6.60;;;5.90;;
14740;SDS011;7462;53.530;9.414;2022-11-15T13:19:58;7.23;;;6.20;;
14740;SDS011;7462;53.530;9.414;2022-11-15T13:22:37;7.83;;;6.10;;
14740;SDS011;7462;53.530;9.414;2022-11-15T13:25:20;9.90;;;5.70;;
14740;SDS011;7462;53.530;9.414;2022-11-15T13:28:10;6.50;;;5.10;;
14740;SDS011;7462;53.530;9.414;2022-11-15T13:30:48;7.13;;;6.00;;
14740;SDS011;7462;53.530;9.414;2022-11-15T13:33:18;7.23;;;5.90;;
14740;SDS011;7462;53.530;9.414;2022-11-15T13:35:50;8.30;;;5.90;;
14740;SDS011;7462;53.530;9.414;2022-11-15T13:38:25;6.17;;;5.33;;
14740;SDS011;7462;53.530;9.414;2022-11-15T13:40:56;6.00;;;5.23;;
14740;SDS011;7462;53.530;9.414;2022-11-15T13:43:32;6.20;;;5.30;;
14740;SDS011;7462;53.530;9.414;2022-11-15T13:46:06;6.53;;;5.70;;
14740;SDS011;7462;53.530;9.414;2022-11-15T13:48:37;6.23;;;5.63;;
14740;SDS011;7462;53.530;9.414;2022-11-15T13:51:08;5.90;;;5.30;;
14740;SDS011;7462;53.530;9.414;2022-11-15T13:53:44;5.63;;;5.13;;
14740;SDS011;7462;53.530;9.414;2022-11-15T13:56:14;6.97;;;5.70;;
14740;SDS011;7462;53.530;9.414;2022-11-15T13:58:44;6.20;;;5.60;;
14740;SDS011;7462;53.530;9.414;2022-11-15T14:01:14;5.77;;;5.10;;
14740;SDS011;7462;53.530;9.414;2022-11-15T14:03:50;6.07;;;5.47;;
14740;SDS011;7462;53.530;9.414;2022-11-15T14:06:23;6.80;;;5.63;;
14740;SDS011;7462;53.530;9.414;2022-11-15T14:12:26;5.87;;;4.80;;
14740;SDS011;7462;53.530;9.414;2022-11-15T14:14:56;6.23;;;5.27;;
14740;SDS011;7462;53.530;9.414;2022-11-15T14:17:36;5.70;;;5.20;;
14740;SDS011;7462;53.530;9.414;2022-11-15T14:20:19;5.60;;;5.10;;
14740;SDS011;7462;53.530;9.414;2022-11-15T14:22:55;6.17;;;5.43;;
14740;SDS011;7462;53.530;9.414;2022-11-15T14:25:24;6.83;;;5.87;;
14740;SDS011;7462;53.530;9.414;2022-11-15T14:28:10;5.40;;;4.70;;
14740;SDS011;7462;53.530;9.414;2022-11-15T14:30:41;7.80;;;5.13;;
14740;SDS011;7462;53.530;9.414;2022-11-15T14:33:19;5.43;;;4.63;;
14740;SDS011;7462;53.530;9.414;2022-11-15T14:35:49;6.43;;;4.50;;
14740;SDS011;7462;53.530;9.414;2022-11-15T14:38:19;6.80;;;4.60;;
14740;SDS011;7462;53.530;9.414;2022-11-15T14:40:48;7.40;;;4.87;;
14740;SDS011;7462;53.530;9.414;2022-11-15T14:43:16;7.10;;;4.73;;
14740;SDS011;7462;53.530;9.414;2022-11-15T14:45:44;5.73;;;5.10;;
14740;SDS011;7462;53.530;9.414;2022-11-15T14:48:12;5.90;;;5.17;;
14740;SDS011;7462;53.530;9.414;2022-11-15T14:50:40;5.53;;;4.47;;
14740;SDS011;7462;53.530;9.414;2022-11-15T14:53:11;5.07;;;4.30;;
14740;SDS011;7462;53.530;9.414;2022-11-15T14:55:42;6.43;;;4.97;;
14740;SDS011;7462;53.530;9.414;2022-11-15T14:58:10;6.97;;;5.13;;
14740;SDS011;7462;53.530;9.414;2022-11-15T15:00:38;8.63;;;5.80;;
14740;SDS011;7462;53.530;9.414;2022-11-15T15:03:07;7.47;;;5.00;;
14740;SDS011;7462;53.530;9.414;2022-11-15T15:05:36;9.93;;;6.10;;
14740;SDS011;7462;53.530;9.414;2022-11-15T15:08:06;6.27;;;5.67;;
14740;SDS011;7462;53.530;9.414;2022-11-15T15:10:35;11.70;;;6.47;;
14740;SDS011;7462;53.530;9.414;2022-11-15T15:13:10;8.17;;;5.77;;
14740;SDS011;7462;53.530;9.414;2022-11-15T15:15:44;46.33;;;8.73;;
14740;SDS011;7462;53.530;9.414;2022-11-15T15:18:13;8.53;;;6.20;;
14740;SDS011;7462;53.530;9.414;2022-11-15T15:20:41;8.67;;;6.30;;
14740;SDS011;7462;53.530;9.414;2022-11-15T15:23:15;9.03;;;6.47;;
14740;SDS011;7462;53.530;9.414;2022-11-15T15:25:44;7.70;;;6.83;;
14740;SDS011;7462;53.530;9.414;2022-11-15T15:28:16;8.27;;;6.27;;
14740;SDS011;7462;53.530;9.414;2022-11-15T15:30:44;9.20;;;7.00;;
14740;SDS011;7462;53.530;9.414;2022-11-15T15:33:12;8.80;;;6.67;;
14740;SDS011;7462;53.530;9.414;2022-11-15T15:35:40;8.70;;;7.00;;
14740;SDS011;7462;53.530;9.414;2022-11-15T15:38:10;8.57;;;7.30;;
14740;SDS011;7462;53.530;9.414;2022-11-15T15:40:39;8.63;;;7.30;;
14740;SDS011;7462;53.530;9.414;2022-11-15T15:43:07;9.93;;;7.87;;
14740;SDS011;7462;53.530;9.414;2022-11-15T15:45:37;11.03;;;7.60;;
14740;SDS011;7462;53.530;9.414;2022-11-15T15:48:08;9.27;;;7.77;;
14740;SDS011;7462;53.530;9.414;2022-11-15T15:50:39;9.83;;;8.17;;
14740;SDS011;7462;53.530;9.414;2022-11-15T15:53:09;9.43;;;6.90;;
14740;SDS011;7462;53.530;9.414;2022-11-15T15:55:38;9.93;;;8.20;;
14740;SDS011;7462;53.530;9.414;2022-11-15T15:58:06;9.80;;;8.00;;
14740;SDS011;7462;53.530;9.414;2022-11-15T16:00:34;8.00;;;7.03;;
14740;SDS011;7462;53.530;9.414;2022-11-15T16:03:05;12.57;;;10.10;;
14740;SDS011;7462;53.530;9.414;2022-11-15T16:05:33;10.57;;;8.10;;
14740;SDS011;7462;53.530;9.414;2022-11-15T16:08:02;9.77;;;8.30;;
14740;SDS011;7462;53.530;9.414;2022-11-15T16:10:31;8.93;;;8.03;;
14740;SDS011;7462;53.530;9.414;2022-11-15T16:13:00;10.27;;;8.60;;
14740;SDS011;7462;53.530;9.414;2022-11-15T16:15:29;10.50;;;9.07;;
14740;SDS011;7462;53.530;9.414;2022-11-15T16:17:59;9.90;;;8.90;;
14740;SDS011;7462;53.530;9.414;2022-11-15T16:20:32;11.60;;;8.60;;
14740;SDS011;7462;53.530;9.414;2022-11-15T16:23:05;12.10;;;8.23;;
14740;SDS011;7462;53.530;9.414;2022-11-15T16:25:37;9.07;;;7.87;;
14740;SDS011;7462;53.530;9.414;2022-11-15T16:28:12;9.13;;;8.03;;
14740;SDS011;7462;53.530;9.414;2022-11-15T16:30:46;9.70;;;8.23;;
14740;SDS011;7462;53.530;9.414;2022-11-15T16:33:23;11.83;;;8.90;;
14740;SDS011;7462;53.530;9.414;2022-11-15T16:35:51;10.23;;;8.77;;
14740;SDS011;7462;53.530;9.414;2022-11-15T16:38:19;9.50;;;8.30;;
14740;SDS011;7462;53.530;9.414;2022-11-15T16:40:47;11.93;;;10.30;;
14740;SDS011;7462;53.530;9.414;2022-11-15T16:43:16;11.20;;;8.87;;
14740;SDS011;7462;53.530;9.414;2022-11-15T16:45:44;11.33;;;9.70;;
14740;SDS011;7462;53.530;9.414;2022-11-15T16:48:18;10.53;;;9.43;;
14740;SDS011;7462;53.530;9.414;2022-11-15T16:50:51;10.60;;;9.50;;
14740;SDS011;7462;53.530;9.414;2022-11-15T16:53:22;11.30;;;10.00;;